createdAt,value
2016-07-30T00:00:00.642Z,0
2016-07-30T00:01:01.355Z,0
2016-07-30T00:01:59.947Z,0
2016-07-30T00:03:00.662Z,0
2016-07-30T00:03:59.961Z,0
2016-07-30T00:05:01.630Z,0
2016-07-30T00:06:00.682Z,0
2016-07-30T00:08:00.691Z,0
2016-07-30T00:09:00.705Z,0
2016-07-30T00:10:00.704Z,0
2016-07-30T00:11:00.711Z,0
2016-07-30T00:12:00.009Z,0
2016-07-30T00:13:00.010Z,0
2016-07-30T00:14:00.021Z,0
2016-07-30T00:15:00.025Z,0
2016-07-30T00:16:02.041Z,0
2016-07-30T00:17:00.745Z,0
2016-07-30T00:18:00.754Z,0
2016-07-30T00:19:01.463Z,0
2016-07-30T00:21:00.115Z,0
2016-07-30T00:22:00.068Z,0
2016-07-30T00:23:00.081Z,0
2016-07-30T00:24:00.081Z,0
2016-07-30T00:25:01.562Z,0
2016-07-30T00:26:01.509Z,0
2016-07-30T00:27:01.158Z,0
2016-07-30T00:28:00.105Z,0
2016-07-30T00:29:00.662Z,0
2016-07-30T00:30:00.124Z,0
2016-07-30T00:31:00.137Z,0
2016-07-30T00:31:59.420Z,0
2016-07-30T00:33:00.844Z,0
2016-07-30T00:34:00.850Z,0
2016-07-30T00:35:00.153Z,0
2016-07-30T00:36:01.983Z,0
2016-07-30T00:38:01.075Z,0
2016-07-30T00:39:00.171Z,0
2016-07-30T00:40:00.174Z,0
2016-07-30T00:41:00.187Z,0
2016-07-30T00:42:00.189Z,0
2016-07-30T00:43:00.193Z,0
2016-07-30T00:44:00.908Z,0
2016-07-30T00:45:00.204Z,0
2016-07-30T00:46:00.923Z,0
2016-07-30T00:47:01.980Z,0
2016-07-30T00:48:00.934Z,0
2016-07-30T00:49:01.145Z,0
2016-07-30T00:50:00.945Z,0
2016-07-30T00:51:00.248Z,0
2016-07-30T00:52:00.960Z,0
2016-07-30T00:53:00.965Z,0
2016-07-30T00:54:00.971Z,0
2016-07-30T00:55:01.030Z,0
2016-07-30T00:56:00.986Z,0
2016-07-30T00:57:00.987Z,0
2016-07-30T00:58:01.079Z,0
2016-07-30T00:59:00.287Z,0
2016-07-30T01:00:02.687Z,0
2016-07-30T01:01:00.299Z,0
2016-07-30T01:01:59.601Z,0
2016-07-30T01:03:00.314Z,0
2016-07-30T01:04:00.316Z,0
2016-07-30T01:05:01.739Z,0
2016-07-30T01:06:01.036Z,0
2016-07-30T01:07:01.045Z,0
2016-07-30T01:07:59.640Z,0
2016-07-30T01:09:02.065Z,0
2016-07-30T01:10:00.349Z,0
2016-07-30T01:11:01.066Z,0
2016-07-30T01:12:00.373Z,0
2016-07-30T01:13:02.685Z,0
2016-07-30T01:14:01.085Z,0
2016-07-30T01:15:00.379Z,0
2016-07-30T01:16:00.389Z,0
2016-07-30T01:17:01.121Z,0
2016-07-30T01:18:00.399Z,0
2016-07-30T01:19:01.112Z,0
2016-07-30T01:20:01.831Z,0
2016-07-30T01:21:00.415Z,0
2016-07-30T01:22:02.892Z,0
2016-07-30T01:23:00.428Z,0
2016-07-30T01:23:59.724Z,0
2016-07-30T01:25:00.554Z,0
2016-07-30T01:26:01.863Z,0
2016-07-30T01:27:01.155Z,0
2016-07-30T01:28:00.459Z,0
2016-07-30T01:29:00.464Z,0
2016-07-30T01:30:01.224Z,0
2016-07-30T01:30:59.775Z,0
2016-07-30T01:32:01.198Z,0
2016-07-30T01:33:02.874Z,0
2016-07-30T01:34:00.497Z,0
2016-07-30T01:35:01.714Z,0
2016-07-30T01:36:01.922Z,0
2016-07-30T01:37:00.513Z,0
2016-07-30T01:38:01.936Z,0
2016-07-30T01:39:01.940Z,0
2016-07-30T01:40:01.948Z,0
2016-07-30T01:41:01.246Z,0
2016-07-30T01:42:00.541Z,0
2016-07-30T01:43:00.544Z,0
2016-07-30T01:44:02.313Z,0
2016-07-30T01:45:01.264Z,0
2016-07-30T01:46:01.277Z,0
2016-07-30T01:47:01.279Z,0
2016-07-30T01:48:01.285Z,0
2016-07-30T01:49:01.294Z,0
2016-07-30T01:50:00.585Z,0
2016-07-30T01:51:02.012Z,0
2016-07-30T01:52:02.017Z,0
2016-07-30T01:53:01.315Z,0
2016-07-30T01:54:01.321Z,0
2016-07-30T01:55:02.026Z,0
2016-07-30T01:56:01.336Z,0
2016-07-30T01:57:01.433Z,0
2016-07-30T01:58:01.343Z,0
2016-07-30T01:59:01.352Z,0
2016-07-30T02:00:00.649Z,0
2016-07-30T02:01:01.361Z,0
2016-07-30T02:01:59.956Z,0
2016-07-30T02:03:01.371Z,0
2016-07-30T02:03:59.965Z,0
2016-07-30T02:05:01.386Z,0
2016-07-30T02:06:00.926Z,0
2016-07-30T02:07:02.105Z,0
2016-07-30T02:08:00.697Z,0
2016-07-30T02:09:00.699Z,0
2016-07-30T02:10:01.464Z,0
2016-07-30T02:11:02.126Z,0
2016-07-30T02:12:02.133Z,0
2016-07-30T02:13:02.134Z,0
2016-07-30T02:14:01.437Z,0
2016-07-30T02:15:00.741Z,0
2016-07-30T02:16:00.032Z,0
2016-07-30T02:17:03.274Z,0
2016-07-30T02:18:00.044Z,0
2016-07-30T02:19:02.835Z,0
2016-07-30T02:20:00.055Z,0
2016-07-30T02:21:01.480Z,0
2016-07-30T02:22:00.066Z,0
2016-07-30T02:23:01.487Z,0
2016-07-30T02:24:02.203Z,0
2016-07-30T02:25:01.552Z,0
2016-07-30T02:26:01.503Z,0
2016-07-30T02:27:01.510Z,0
2016-07-30T02:28:00.810Z,0
2016-07-30T02:29:01.525Z,0
2016-07-30T02:30:02.677Z,0
2016-07-30T02:31:01.534Z,0
2016-07-30T02:32:01.584Z,0
2016-07-30T02:33:00.840Z,0
2016-07-30T02:34:00.843Z,0
2016-07-30T02:35:01.557Z,0
2016-07-30T02:36:02.264Z,0
2016-07-30T02:37:00.147Z,0
2016-07-30T02:38:00.877Z,0
2016-07-30T02:39:02.624Z,0
2016-07-30T02:40:02.293Z,0
2016-07-30T02:41:01.436Z,0
2016-07-30T02:42:01.593Z,0
2016-07-30T02:43:01.601Z,0
2016-07-30T02:44:00.900Z,0
2016-07-30T02:45:01.619Z,0
2016-07-30T02:46:01.620Z,0
2016-07-30T02:47:00.917Z,0
2016-07-30T02:48:01.631Z,0
2016-07-30T02:49:01.644Z,0
2016-07-30T02:50:02.905Z,0
2016-07-30T02:51:02.352Z,0
2016-07-30T02:52:01.901Z,0
2016-07-30T02:53:00.956Z,0
2016-07-30T02:54:02.370Z,0
2016-07-30T02:55:01.664Z,0
2016-07-30T02:56:02.393Z,0
2016-07-30T02:57:02.386Z,0
2016-07-30T02:58:02.391Z,0
2016-07-30T02:59:02.450Z,0
2016-07-30T03:00:00.988Z,0
2016-07-30T03:01:02.762Z,0
2016-07-30T03:02:00.295Z,0
2016-07-30T03:03:01.009Z,0
2016-07-30T03:04:02.430Z,0
2016-07-30T03:05:01.730Z,0
2016-07-30T03:06:01.735Z,0
2016-07-30T03:07:01.033Z,0
2016-07-30T03:08:01.790Z,0
2016-07-30T03:09:01.749Z,0
2016-07-30T03:10:01.753Z,0
2016-07-30T03:11:02.474Z,0
2016-07-30T03:12:02.619Z,0
2016-07-30T03:13:01.074Z,0
2016-07-30T03:14:03.712Z,0
2016-07-30T03:15:01.078Z,0
2016-07-30T03:16:01.088Z,0
2016-07-30T03:17:02.505Z,0
2016-07-30T03:18:01.103Z,0
2016-07-30T03:19:01.814Z,0
2016-07-30T03:20:01.109Z,0
2016-07-30T03:21:01.823Z,0
2016-07-30T03:22:01.120Z,0
2016-07-30T03:23:01.832Z,0
2016-07-30T03:24:01.135Z,0
2016-07-30T03:25:01.846Z,0
2016-07-30T03:26:02.612Z,4
2016-07-30T03:27:01.154Z,4
2016-07-30T03:28:01.859Z,4
2016-07-30T03:29:01.871Z,0
2016-07-30T03:30:00.512Z,4
2016-07-30T03:31:01.232Z,4
2016-07-30T03:32:01.890Z,4
2016-07-30T03:33:01.904Z,4
2016-07-30T03:34:03.599Z,4
2016-07-30T03:35:01.905Z,4
2016-07-30T03:36:03.381Z,4
2016-07-30T03:37:01.210Z,4
2016-07-30T03:38:01.968Z,4
2016-07-30T03:39:02.635Z,8
2016-07-30T03:40:01.225Z,8
2016-07-30T03:41:01.942Z,8
2016-07-30T03:42:01.945Z,4
2016-07-30T03:43:02.653Z,4
2016-07-30T03:44:01.961Z,8
2016-07-30T03:45:01.960Z,8
2016-07-30T03:46:01.261Z,12
2016-07-30T03:47:03.039Z,12
2016-07-30T03:48:02.684Z,16
2016-07-30T03:49:01.277Z,16
2016-07-30T03:50:01.987Z,16
2016-07-30T03:51:01.994Z,20
2016-07-30T03:52:01.291Z,16
2016-07-30T03:53:01.339Z,16
2016-07-30T03:54:02.729Z,16
2016-07-30T03:55:01.309Z,20
2016-07-30T03:56:02.023Z,20
2016-07-30T03:57:02.737Z,24
2016-07-30T03:58:03.302Z,24
2016-07-30T03:59:02.192Z,28
2016-07-30T04:00:00.640Z,28
2016-07-30T04:01:02.757Z,28
2016-07-30T04:02:00.644Z,36
2016-07-30T04:03:02.059Z,36
2016-07-30T04:04:01.360Z,40
2016-07-30T04:05:02.075Z,44
2016-07-30T04:06:02.074Z,48
2016-07-30T04:07:03.962Z,52
2016-07-30T04:08:01.453Z,60
2016-07-30T04:09:02.896Z,60
2016-07-30T04:10:00.691Z,52
2016-07-30T04:11:02.104Z,56
2016-07-30T04:12:01.403Z,60
2016-07-30T04:13:02.167Z,60
2016-07-30T04:14:01.421Z,72
2016-07-30T04:15:01.423Z,88
2016-07-30T04:16:01.435Z,100
2016-07-30T04:17:02.138Z,112
2016-07-30T04:18:00.983Z,128
2016-07-30T04:19:02.149Z,140
2016-07-30T04:20:03.463Z,148
2016-07-30T04:21:02.869Z,160
2016-07-30T04:22:02.162Z,168
2016-07-30T04:23:01.497Z,180
2016-07-30T04:24:02.184Z,180
2016-07-30T04:25:00.769Z,188
2016-07-30T04:26:02.186Z,192
2016-07-30T04:27:01.534Z,208
2016-07-30T04:28:01.491Z,224
2016-07-30T04:29:02.750Z,244
2016-07-30T04:30:02.224Z,256
2016-07-30T04:31:03.013Z,276
2016-07-30T04:32:01.515Z,288
2016-07-30T04:33:04.057Z,300
2016-07-30T04:34:02.235Z,304
2016-07-30T04:35:00.819Z,316
2016-07-30T04:36:02.995Z,324
2016-07-30T04:37:01.594Z,332
2016-07-30T04:39:02.961Z,340
2016-07-30T04:40:02.563Z,352
2016-07-30T04:41:02.263Z,360
2016-07-30T04:42:02.273Z,364
2016-07-30T04:43:02.290Z,376
2016-07-30T04:44:01.572Z,380
2016-07-30T04:45:02.999Z,380
2016-07-30T04:46:01.588Z,380
2016-07-30T04:47:03.010Z,376
2016-07-30T04:48:00.890Z,368
2016-07-30T04:49:02.314Z,352
2016-07-30T04:50:02.314Z,348
2016-07-30T04:51:04.128Z,368
2016-07-30T04:52:01.619Z,380
2016-07-30T04:54:01.628Z,380
2016-07-30T04:55:30.685Z,340
2016-07-30T04:56:00.933Z,320
2016-07-30T04:57:03.062Z,296
2016-07-30T04:58:02.368Z,276
2016-07-30T04:59:02.369Z,264
2016-07-30T05:00:01.663Z,248
2016-07-30T05:01:02.372Z,244
2016-07-30T05:02:03.430Z,244
2016-07-30T05:03:02.383Z,260
2016-07-30T05:04:02.992Z,276
2016-07-30T05:05:01.697Z,304
2016-07-30T05:06:01.690Z,320
2016-07-30T05:07:02.417Z,340
2016-07-30T05:08:02.412Z,360
2016-07-30T05:09:01.059Z,372
2016-07-30T05:10:02.434Z,388
2016-07-30T05:11:01.723Z,412
2016-07-30T05:12:02.432Z,460
2016-07-30T05:13:03.544Z,512
2016-07-30T05:14:02.444Z,552
2016-07-30T05:15:03.150Z,580
2016-07-30T05:16:03.162Z,588
2016-07-30T05:17:01.767Z,616
2016-07-30T05:18:01.814Z,648
2016-07-30T05:19:01.765Z,656
2016-07-30T05:20:02.481Z,684
2016-07-30T05:21:02.484Z,744
2016-07-30T05:22:01.782Z,856
2016-07-30T05:23:02.495Z,1004
2016-07-30T05:24:03.657Z,1144
2016-07-30T05:25:01.796Z,1260
2016-07-30T05:26:03.221Z,1368
2016-07-30T05:27:01.811Z,1396
2016-07-30T05:28:01.817Z,1656
2016-07-30T05:29:02.528Z,1528
2016-07-30T05:30:02.586Z,1512
2016-07-30T05:31:01.833Z,2264
2016-07-30T05:32:01.132Z,6236
2016-07-30T05:33:02.560Z,5516
2016-07-30T05:34:02.563Z,5396
2016-07-30T05:35:03.564Z,2740
2016-07-30T05:36:01.913Z,1732
2016-07-30T05:37:03.133Z,3272
2016-07-30T05:38:02.585Z,2872
2016-07-30T05:39:02.592Z,2444
2016-07-30T05:40:01.182Z,2096
2016-07-30T05:41:02.598Z,3304
2016-07-30T05:42:02.657Z,8336
2016-07-30T05:43:01.901Z,9424
2016-07-30T05:44:01.910Z,9408
2016-07-30T05:45:01.915Z,8824
2016-07-30T05:46:03.736Z,2184
2016-07-30T05:47:02.650Z,2352
2016-07-30T05:48:02.731Z,2740
2016-07-30T05:49:01.938Z,6172
2016-07-30T05:50:04.463Z,8928
2016-07-30T05:51:01.951Z,1832
2016-07-30T05:52:02.662Z,1560
2016-07-30T05:53:02.670Z,1760
2016-07-30T05:54:02.674Z,2068
2016-07-30T05:55:03.390Z,3832
2016-07-30T05:56:02.691Z,4168
2016-07-30T05:57:03.693Z,10144
2016-07-30T05:58:01.997Z,3076
2016-07-30T05:59:02.714Z,8212
2016-07-30T06:00:02.018Z,9124
2016-07-30T06:01:02.016Z,8464
2016-07-30T06:02:02.022Z,2380
2016-07-30T06:03:02.735Z,2976
2016-07-30T06:04:02.038Z,13160
2016-07-30T06:05:02.744Z,4616
2016-07-30T06:06:02.754Z,8824
2016-07-30T06:07:02.058Z,4792
2016-07-30T06:08:03.517Z,2876
2016-07-30T06:09:02.930Z,15296
2016-07-30T06:10:03.128Z,16256
2016-07-30T06:11:03.495Z,4376
2016-07-30T06:12:04.301Z,10144
2016-07-30T06:13:02.802Z,17760
2016-07-30T06:14:02.809Z,15264
2016-07-30T06:15:03.520Z,15360
2016-07-30T06:16:03.531Z,7984
2016-07-30T06:17:02.842Z,5456
2016-07-30T06:18:02.183Z,9032
2016-07-30T06:19:04.457Z,19136
2016-07-30T06:20:03.560Z,17600
2016-07-30T06:21:02.707Z,19744
2016-07-30T06:22:03.576Z,22176
2016-07-30T06:23:02.877Z,23168
2016-07-30T06:24:02.175Z,22080
2016-07-30T06:25:03.601Z,22656
2016-07-30T06:26:02.904Z,23104
2016-07-30T06:27:02.205Z,23232
2016-07-30T06:28:02.566Z,23648
2016-07-30T06:29:02.927Z,25280
2016-07-30T06:30:03.841Z,26400
2016-07-30T06:31:02.241Z,26848
2016-07-30T06:32:02.957Z,26624
2016-07-30T06:33:02.257Z,27584
2016-07-30T06:34:01.705Z,28512
2016-07-30T06:35:02.272Z,29440
2016-07-30T06:36:03.698Z,29792
2016-07-30T06:37:03.856Z,29248
2016-07-30T06:38:03.014Z,28256
2016-07-30T06:39:03.730Z,31424
2016-07-30T06:40:02.323Z,34272
2016-07-30T06:41:02.334Z,34528
2016-07-30T06:42:03.048Z,34816
2016-07-30T06:43:03.402Z,35328
2016-07-30T06:44:03.069Z,35296
2016-07-30T06:45:03.787Z,34464
2016-07-30T06:46:02.384Z,34048
2016-07-30T06:47:03.098Z,30016
2016-07-30T06:48:03.865Z,27936
2016-07-30T06:49:03.839Z,34272
2016-07-30T06:50:03.132Z,36896
2016-07-30T06:51:03.860Z,31168
2016-07-30T06:52:04.279Z,36992
2016-07-30T06:53:03.160Z,20288
2016-07-30T06:54:03.325Z,2192
2016-07-30T06:55:16.648Z,1940
2016-07-30T06:56:02.484Z,3064
2016-07-30T06:57:02.496Z,3816
2016-07-30T06:58:02.506Z,1764
2016-07-30T06:59:02.522Z,1628
2016-07-30T07:00:03.229Z,1800
2016-07-30T07:01:02.535Z,1852
2016-07-30T07:02:03.250Z,1336
2016-07-30T07:03:03.964Z,1284
2016-07-30T07:04:03.973Z,908
2016-07-30T07:05:03.627Z,1796
2016-07-30T07:06:01.866Z,1284
2016-07-30T07:07:04.012Z,1168
2016-07-30T07:08:02.593Z,840
2016-07-30T07:09:03.358Z,756
2016-07-30T07:10:03.317Z,688
2016-07-30T07:11:03.324Z,668
2016-07-30T07:12:02.624Z,648
2016-07-30T07:13:04.046Z,640
2016-07-30T07:14:04.396Z,596
2016-07-30T07:15:03.409Z,540
2016-07-30T07:16:04.006Z,508
2016-07-30T07:17:04.070Z,524
2016-07-30T07:18:02.715Z,584
2016-07-30T07:19:03.379Z,668
2016-07-30T07:20:04.107Z,776
2016-07-30T07:21:03.396Z,720
2016-07-30T07:22:03.400Z,688
2016-07-30T07:23:01.987Z,620
2016-07-30T07:24:03.416Z,600
2016-07-30T07:25:03.917Z,620
2016-07-30T07:26:03.429Z,996
2016-07-30T07:27:03.580Z,1040
2016-07-30T07:28:03.445Z,1080
2016-07-30T07:29:03.452Z,1084
2016-07-30T07:30:04.166Z,1072
2016-07-30T07:31:03.466Z,1144
2016-07-30T07:32:03.470Z,2720
2016-07-30T07:33:02.764Z,1740
2016-07-30T07:34:04.189Z,1468
2016-07-30T07:35:03.487Z,1432
2016-07-30T07:36:04.706Z,1480
2016-07-30T07:37:04.209Z,1548
2016-07-30T07:38:04.205Z,1488
2016-07-30T07:39:02.255Z,1432
2016-07-30T07:40:03.569Z,1560
2016-07-30T07:41:03.527Z,2952
2016-07-30T07:42:03.531Z,2572
2016-07-30T07:43:02.886Z,2792
2016-07-30T07:44:03.546Z,2776
2016-07-30T07:45:03.560Z,2928
2016-07-30T07:46:02.850Z,3172
2016-07-30T07:47:04.673Z,3652
2016-07-30T07:48:04.281Z,3720
2016-07-30T07:49:03.879Z,3224
2016-07-30T07:50:03.586Z,2892
2016-07-30T07:51:02.883Z,2736
2016-07-30T07:52:03.599Z,2568
2016-07-30T07:53:04.311Z,2560
2016-07-30T07:54:03.616Z,2932
2016-07-30T07:55:02.917Z,3520
2016-07-30T07:56:02.918Z,3440
2016-07-30T07:57:02.220Z,3612
2016-07-30T07:58:04.200Z,3816
2016-07-30T07:59:03.642Z,3464
2016-07-30T08:00:03.998Z,3516
2016-07-30T08:01:04.365Z,3104
2016-07-30T08:02:03.658Z,2824
2016-07-30T08:03:02.969Z,2668
2016-07-30T08:04:03.684Z,2820
2016-07-30T08:05:03.682Z,2348
2016-07-30T08:06:03.689Z,2576
2016-07-30T08:07:03.692Z,2696
2016-07-30T08:08:02.996Z,3372
2016-07-30T08:09:04.297Z,3100
2016-07-30T08:10:03.718Z,2736
2016-07-30T08:11:04.064Z,2388
2016-07-30T08:12:03.729Z,2244
2016-07-30T08:13:03.735Z,2280
2016-07-30T08:14:03.032Z,2384
2016-07-30T08:15:04.454Z,2284
2016-07-30T08:16:03.102Z,2288
2016-07-30T08:17:03.756Z,2072
2016-07-30T08:18:03.059Z,1828
2016-07-30T08:19:03.771Z,1840
2016-07-30T08:20:04.467Z,2284
2016-07-30T08:21:03.787Z,2480
2016-07-30T08:22:04.004Z,2540
2016-07-30T08:23:03.087Z,2360
2016-07-30T08:24:02.421Z,2432
2016-07-30T08:25:04.516Z,2376
2016-07-30T08:26:04.519Z,2364
2016-07-30T08:27:04.534Z,2364
2016-07-30T08:28:03.830Z,2652
2016-07-30T08:29:04.541Z,2656
2016-07-30T08:30:03.138Z,2756
2016-07-30T08:31:04.361Z,2884
2016-07-30T08:32:03.146Z,3084
2016-07-30T08:33:04.768Z,2928
2016-07-30T08:34:03.876Z,2984
2016-07-30T08:35:04.594Z,2720
2016-07-30T08:36:03.883Z,2792
2016-07-30T08:37:03.885Z,2868
2016-07-30T08:38:04.599Z,2864
2016-07-30T08:39:03.220Z,2744
2016-07-30T08:40:02.687Z,2568
2016-07-30T08:41:03.972Z,2508
2016-07-30T08:42:04.420Z,2768
2016-07-30T08:43:03.975Z,2984
2016-07-30T08:44:04.174Z,3152
2016-07-30T08:45:03.230Z,3144
2016-07-30T08:46:03.231Z,3104
2016-07-30T08:47:03.957Z,3128
2016-07-30T08:48:03.247Z,3180
2016-07-30T08:49:02.549Z,3152
2016-07-30T08:50:03.969Z,3092
2016-07-30T08:51:03.264Z,3072
2016-07-30T08:52:03.977Z,3192
2016-07-30T08:53:05.134Z,3080
2016-07-30T08:55:47.218Z,2832
2016-07-30T08:56:04.714Z,2776
2016-07-30T08:57:03.298Z,2756
2016-07-30T08:58:02.603Z,2788
2016-07-30T08:59:04.727Z,2780
2016-07-30T09:00:03.320Z,2692
2016-07-30T09:01:04.036Z,2724
2016-07-30T09:02:04.049Z,2728
2016-07-30T09:03:03.339Z,2764
2016-07-30T09:04:05.147Z,2756
2016-07-30T09:05:03.354Z,2608
2016-07-30T09:06:05.475Z,2448
2016-07-30T09:07:04.785Z,2340
2016-07-30T09:08:03.369Z,2284
2016-07-30T09:10:03.396Z,2364
2016-07-30T09:11:04.097Z,2380
2016-07-30T09:12:04.115Z,2244
2016-07-30T09:13:04.110Z,1964
2016-07-30T09:14:03.417Z,1716
2016-07-30T09:15:05.090Z,1648
2016-07-30T09:16:04.185Z,1560
2016-07-30T09:17:05.599Z,1420
2016-07-30T09:18:03.438Z,1340
2016-07-30T09:19:04.149Z,1352
2016-07-30T09:20:03.450Z,1384
2016-07-30T09:21:03.463Z,1420
2016-07-30T09:22:03.508Z,1444
2016-07-30T09:23:04.882Z,1428
2016-07-30T09:24:04.180Z,1352
2016-07-30T09:25:04.191Z,1308
2016-07-30T09:26:05.162Z,1268
2016-07-30T09:27:03.493Z,1264
2016-07-30T09:28:04.906Z,1304
2016-07-30T09:29:03.508Z,1352
2016-07-30T09:30:03.514Z,1380
2016-07-30T09:31:04.225Z,1392
2016-07-30T09:32:04.952Z,1372
2016-07-30T09:33:04.241Z,1376
2016-07-30T09:34:03.539Z,1360
2016-07-30T09:35:04.253Z,1380
2016-07-30T09:36:04.256Z,1440
2016-07-30T09:37:06.239Z,1488
2016-07-30T09:38:02.855Z,1516
2016-07-30T09:39:05.111Z,1592
2016-07-30T09:40:03.576Z,1616
2016-07-30T09:41:03.590Z,1644
2016-07-30T09:42:04.302Z,1704
2016-07-30T09:43:03.592Z,1732
2016-07-30T09:44:04.360Z,1768
2016-07-30T09:45:04.315Z,1748
2016-07-30T09:46:04.366Z,1716
2016-07-30T09:47:02.914Z,1848
2016-07-30T09:48:06.128Z,1972
2016-07-30T09:49:04.345Z,1980
2016-07-30T09:50:05.063Z,2004
2016-07-30T09:51:03.645Z,2052
2016-07-30T09:52:05.057Z,2152
2016-07-30T09:53:04.360Z,2272
2016-07-30T09:54:04.419Z,2436
2016-07-30T09:55:02.957Z,2444
2016-07-30T09:56:04.380Z,2388
2016-07-30T09:57:04.385Z,2552
2016-07-30T09:58:03.681Z,2540
2016-07-30T09:59:06.133Z,2568
2016-07-30T10:00:03.695Z,2552
2016-07-30T10:01:05.108Z,2440
2016-07-30T10:02:03.714Z,2452
2016-07-30T10:03:03.716Z,2616
2016-07-30T10:04:04.425Z,2588
2016-07-30T10:05:04.443Z,2616
2016-07-30T10:06:04.445Z,2560
2016-07-30T10:07:03.739Z,2524
2016-07-30T10:08:03.749Z,2524
2016-07-30T10:09:03.752Z,2504
2016-07-30T10:10:06.127Z,2648
2016-07-30T10:11:05.183Z,2892
2016-07-30T10:12:04.973Z,2704
2016-07-30T10:13:04.488Z,2628
2016-07-30T10:14:05.207Z,2608
2016-07-30T10:15:04.506Z,2396
2016-07-30T10:16:05.212Z,2440
2016-07-30T10:17:04.510Z,2400
2016-07-30T10:18:03.862Z,2308
2016-07-30T10:19:04.529Z,2236
2016-07-30T10:20:04.531Z,2120
2016-07-30T10:21:04.544Z,2244
2016-07-30T10:22:05.251Z,2132
2016-07-30T10:23:06.208Z,2104
2016-07-30T10:24:05.267Z,2000
2016-07-30T10:25:04.562Z,1880
2016-07-30T10:26:05.276Z,1872
2016-07-30T10:27:04.584Z,1896
2016-07-30T10:28:04.585Z,1816
2016-07-30T10:29:04.590Z,1716
2016-07-30T10:30:04.596Z,1620
2016-07-30T10:31:04.608Z,1552
2016-07-30T10:32:04.636Z,1680
2016-07-30T10:33:04.627Z,1740
2016-07-30T10:34:05.587Z,1808
2016-07-30T10:35:05.354Z,1800
2016-07-30T10:36:03.929Z,1724
2016-07-30T10:37:03.933Z,1732
2016-07-30T10:38:04.655Z,1760
2016-07-30T10:39:05.365Z,1744
2016-07-30T10:40:03.244Z,1692
2016-07-30T10:41:03.962Z,1676
2016-07-30T10:42:04.686Z,1764
2016-07-30T10:43:04.686Z,1904
2016-07-30T10:44:04.690Z,1852
2016-07-30T10:45:04.045Z,1764
2016-07-30T10:46:03.409Z,1688
2016-07-30T10:47:05.461Z,1624
2016-07-30T10:48:04.008Z,1556
2016-07-30T10:49:04.063Z,1520
2016-07-30T10:50:05.484Z,1572
2016-07-30T10:51:05.449Z,1672
2016-07-30T10:52:04.747Z,1752
2016-07-30T10:53:04.753Z,1816
2016-07-30T10:54:03.993Z,1824
2016-07-30T10:55:05.573Z,1880
2016-07-30T10:56:04.058Z,1920
2016-07-30T10:57:04.774Z,1936
2016-07-30T10:58:04.071Z,1900
2016-07-30T10:59:04.079Z,1852
2016-07-30T11:00:04.086Z,1788
2016-07-30T11:01:04.800Z,1732
2016-07-30T11:02:04.803Z,1688
2016-07-30T11:03:04.810Z,1636
2016-07-30T11:04:04.110Z,1576
2016-07-30T11:05:04.822Z,1540
2016-07-30T11:06:04.117Z,1524
2016-07-30T11:07:06.647Z,1492
2016-07-30T11:08:04.134Z,1480
2016-07-30T11:09:05.604Z,1472
2016-07-30T11:10:04.149Z,1464
2016-07-30T11:11:04.863Z,1448
2016-07-30T11:12:04.861Z,1448
2016-07-30T11:13:04.169Z,1508
2016-07-30T11:14:05.584Z,1584
2016-07-30T11:15:04.173Z,1652
2016-07-30T11:16:05.143Z,1752
2016-07-30T11:17:04.200Z,1804
2016-07-30T11:18:06.237Z,1812
2016-07-30T11:19:04.206Z,1744
2016-07-30T11:20:04.221Z,1752
2016-07-30T11:21:03.612Z,1760
2016-07-30T11:22:04.929Z,1832
2016-07-30T11:23:03.522Z,1920
2016-07-30T11:24:03.532Z,2000
2016-07-30T11:25:18.411Z,1956
2016-07-30T11:26:05.719Z,1904
2016-07-30T11:27:04.451Z,1864
2016-07-30T11:28:05.020Z,2008
2016-07-30T11:29:06.203Z,2100
2016-07-30T11:30:05.687Z,2204
2016-07-30T11:31:04.281Z,2384
2016-07-30T11:32:05.701Z,2356
2016-07-30T11:33:05.010Z,2236
2016-07-30T11:34:05.005Z,2048
2016-07-30T11:35:05.015Z,2064
2016-07-30T11:36:04.326Z,1976
2016-07-30T11:37:04.319Z,1856
2016-07-30T11:38:05.084Z,1752
2016-07-30T11:39:04.332Z,1724
2016-07-30T11:40:05.052Z,1724
2016-07-30T11:41:05.056Z,1684
2016-07-30T11:42:05.062Z,1676
2016-07-30T11:43:05.769Z,1612
2016-07-30T11:44:05.784Z,1492
2016-07-30T11:45:04.371Z,1400
2016-07-30T11:46:05.794Z,1376
2016-07-30T11:47:04.387Z,1440
2016-07-30T11:48:05.104Z,1476
2016-07-30T11:49:05.102Z,1552
2016-07-30T11:50:05.166Z,1636
2016-07-30T11:51:06.832Z,1684
2016-07-30T11:52:05.884Z,1640
2016-07-30T11:53:04.425Z,1524
2016-07-30T11:54:05.188Z,1400
2016-07-30T11:55:04.437Z,1324
2016-07-30T11:56:05.152Z,1316
2016-07-30T11:57:04.456Z,1356
2016-07-30T11:58:05.166Z,1400
2016-07-30T11:59:04.467Z,1432
2016-07-30T12:00:05.831Z,1436
2016-07-30T12:01:05.187Z,1448
2016-07-30T12:02:04.040Z,1424
2016-07-30T12:03:04.490Z,1412
2016-07-30T12:04:05.912Z,1432
2016-07-30T12:05:05.212Z,1460
2016-07-30T12:06:04.509Z,1484
2016-07-30T12:07:05.941Z,1484
2016-07-30T12:08:05.933Z,1496
2016-07-30T12:09:04.537Z,1496
2016-07-30T12:10:05.245Z,1552
2016-07-30T12:11:05.341Z,1536
2016-07-30T12:12:05.250Z,1488
2016-07-30T12:13:05.261Z,1476
2016-07-30T12:14:03.861Z,1500
2016-07-30T12:15:05.270Z,1524
2016-07-30T12:16:05.279Z,1544
2016-07-30T12:17:05.291Z,1584
2016-07-30T12:18:04.590Z,1600
2016-07-30T12:19:05.455Z,1588
2016-07-30T12:20:03.890Z,1572
2016-07-30T12:21:04.611Z,1584
2016-07-30T12:22:05.568Z,1588
2016-07-30T12:23:04.617Z,1600
2016-07-30T12:24:05.332Z,1596
2016-07-30T12:25:04.631Z,1652
2016-07-30T12:26:06.058Z,1688
2016-07-30T12:27:05.351Z,1740
2016-07-30T12:28:03.955Z,1764
2016-07-30T12:29:05.364Z,1736
2016-07-30T12:30:03.954Z,1664
2016-07-30T12:31:05.377Z,1556
2016-07-30T12:32:04.678Z,1480
2016-07-30T12:33:06.489Z,1432
2016-07-30T12:34:05.402Z,1356
2016-07-30T12:35:06.110Z,1288
2016-07-30T12:36:05.405Z,1260
2016-07-30T12:37:04.718Z,1260
2016-07-30T12:38:05.428Z,1292
2016-07-30T12:39:04.721Z,1296
2016-07-30T12:40:04.761Z,1288
2016-07-30T12:41:04.749Z,1268
2016-07-30T12:42:05.451Z,1252
2016-07-30T12:43:04.744Z,1376
2016-07-30T12:44:06.170Z,1476
2016-07-30T12:45:04.058Z,1688
2016-07-30T12:46:05.776Z,1680
2016-07-30T12:47:04.063Z,1716
2016-07-30T12:48:05.488Z,1668
2016-07-30T12:49:05.495Z,1528
2016-07-30T12:50:04.847Z,1460
2016-07-30T12:51:05.504Z,1400
2016-07-30T12:52:04.810Z,1368
2016-07-30T12:53:05.533Z,1332
2016-07-30T12:54:05.533Z,1352
2016-07-30T12:55:04.168Z,1392
2016-07-30T12:56:06.261Z,1468
2016-07-30T12:57:06.400Z,1524
2016-07-30T12:58:04.852Z,1572
2016-07-30T12:59:05.558Z,1596
2016-07-30T13:00:05.567Z,1600
2016-07-30T13:01:04.868Z,1612
2016-07-30T13:02:04.875Z,1652
2016-07-30T13:03:05.591Z,1684
2016-07-30T13:04:06.303Z,1680
2016-07-30T13:05:06.311Z,1656
2016-07-30T13:06:06.286Z,1584
2016-07-30T13:07:04.912Z,1520
2016-07-30T13:08:06.623Z,1508
2016-07-30T13:09:04.921Z,1504
2016-07-30T13:11:04.933Z,1552
2016-07-30T13:12:06.360Z,1536
2016-07-30T13:13:06.363Z,1512
2016-07-30T13:14:04.958Z,1524
2016-07-30T13:15:05.670Z,1576
2016-07-30T13:16:06.430Z,1648
2016-07-30T13:17:04.976Z,1604
2016-07-30T13:18:04.979Z,1552
2016-07-30T13:19:06.606Z,1436
2016-07-30T13:20:05.696Z,1520
2016-07-30T13:21:05.074Z,1484
2016-07-30T13:22:05.007Z,1440
2016-07-30T13:23:06.430Z,1372
2016-07-30T13:24:06.434Z,1284
2016-07-30T13:25:05.734Z,1216
2016-07-30T13:26:06.443Z,1204
2016-07-30T13:27:05.042Z,1228
2016-07-30T13:28:07.263Z,1276
2016-07-30T13:29:05.767Z,1240
2016-07-30T13:30:05.463Z,1284
2016-07-30T13:31:05.072Z,1372
2016-07-30T13:32:05.077Z,1460
2016-07-30T13:33:05.788Z,1460
2016-07-30T13:34:05.090Z,1416
2016-07-30T13:35:05.802Z,1392
2016-07-30T13:36:05.815Z,1332
2016-07-30T13:37:04.397Z,1288
2016-07-30T13:38:05.128Z,1252
2016-07-30T13:39:06.544Z,1236
2016-07-30T13:40:05.830Z,1228
2016-07-30T13:41:05.484Z,1244
2016-07-30T13:42:05.145Z,1236
2016-07-30T13:43:05.149Z,1252
2016-07-30T13:44:05.857Z,1260
2016-07-30T13:45:05.925Z,1288
2016-07-30T13:46:05.875Z,1268
2016-07-30T13:47:05.882Z,1288
2016-07-30T13:48:05.198Z,1336
2016-07-30T13:49:05.913Z,1324
2016-07-30T13:50:06.638Z,1348
2016-07-30T13:51:06.629Z,1368
2016-07-30T13:52:06.206Z,1400